Time;durP1;ratioP1;P1;durP2;ratioP2;P2;SDS_P1;SDS_P2;PMS_P1;PMS_P2;Temp;Humidity;BMP_temperature;BMP_pressure;BME280_temperature;BME280_humidity;BME280_pressure;Samples;Min_cycle;Max_cycle;Signal;HPM_P1;HPM_P2
2022/12/10 00:02:11;;;;;;;93.75;63.20;;;12.70;61.00;;;;;;5048349;27;90215;-59
2022/12/10 00:04:36;;;;;;;95.63;62.55;;;12.70;61.00;;;;;;5047287;27;91500;-58
2022/12/10 00:07:02;;;;;;;101.03;64.85;;;12.70;61.00;;;;;;5029054;27;94055;-59
2022/12/10 00:09:28;;;;;;;94.57;63.70;;;12.70;61.00;;;;;;5035059;27;91440;-59
2022/12/10 00:11:53;;;;;;;94.38;62.55;;;12.70;61.00;;;;;;5047544;27;91046;-57
2022/12/10 00:14:19;;;;;;;94.28;64.25;;;12.70;60.90;;;;;;5033531;27;92900;-59
2022/12/10 00:16:45;;;;;;;96.80;63.67;;;12.70;61.00;;;;;;5039491;27;91334;-59
2022/12/10 00:19:11;;;;;;;93.70;62.67;;;12.60;61.20;;;;;;5038058;27;93630;-59
2022/12/10 00:21:37;;;;;;;95.88;63.72;;;12.70;61.20;;;;;;5043653;27;91092;-59
2022/12/10 00:24:03;;;;;;;93.53;62.35;;;12.60;60.90;;;;;;5052057;27;90273;-58
2022/12/10 00:26:35;;;;;;;96.03;63.33;;;12.70;61.00;;;;;;5037095;27;91334;-59
2022/12/10 00:29:02;;;;;;;94.75;63.00;;;12.70;61.20;;;;;;5032664;27;93333;-59
2022/12/10 00:31:30;;;;;;;97.03;63.15;;;12.70;61.10;;;;;;5038067;27;90137;-58
2022/12/10 00:33:58;;;;;;;91.43;61.10;;;12.70;60.90;;;;;;5038834;27;93532;-59
2022/12/10 00:36:36;;;;;;;95.22;62.22;;;12.60;61.10;;;;;;5038394;27;90025;-59
2022/12/10 00:39:03;;;;;;;92.93;62.55;;;12.60;61.20;;;;;;5044307;27;91342;-58
2022/12/10 00:41:29;;;;;;;90.75;61.60;;;12.60;61.10;;;;;;5043112;27;89986;-57
2022/12/10 00:43:55;;;;;;;94.25;63.05;;;12.60;61.30;;;;;;5044090;27;91139;-57
2022/12/10 00:46:20;;;;;;;92.75;63.08;;;12.60;61.10;;;;;;5037630;27;91512;-58
2022/12/10 00:48:46;;;;;;;92.53;61.00;;;12.60;61.20;;;;;;5033111;27;92016;-58
2022/12/10 00:51:18;;;;;;;91.22;62.13;;;12.60;61.20;;;;;;5044423;27;90778;-57
2022/12/10 00:53:44;;;;;;;;;;;12.60;61.10;;;;;;5042542;27;90986;-57
2022/12/10 00:56:12;;;;;;;91.95;62.65;;;12.60;61.20;;;;;;5051367;27;89974;-58
2022/12/10 00:58:38;;;;;;;93.53;62.30;;;12.60;61.10;;;;;;5048191;27;92026;-56
2022/12/10 01:01:13;;;;;;;90.85;61.70;;;12.60;61.20;;;;;;5039807;27;89938;-58
2022/12/10 01:03:39;;;;;;;90.97;61.15;;;12.60;61.20;;;;;;5040506;27;90134;-59
2022/12/10 01:06:10;;;;;;;88.57;61.42;;;12.60;61.20;;;;;;5036420;27;96847;-57
2022/12/10 01:08:36;;;;;;;90.47;61.63;;;12.50;61.20;;;;;;5025738;27;91790;-58
2022/12/10 01:11:02;;;;;;;88.70;60.35;;;12.60;61.20;;;;;;5043231;27;90848;-56
2022/12/10 01:13:27;;;;;;;86.90;60.20;;;12.50;61.10;;;;;;5039913;27;90867;-59
2022/12/10 01:15:53;;;;;;;92.03;61.13;;;12.50;61.20;;;;;;5036911;27;91022;-58
2022/12/10 01:18:19;;;;;;;88.47;61.33;;;12.50;61.10;;;;;;5043830;27;90173;-58
2022/12/10 01:20:44;;;;;;;89.30;60.58;;;12.60;61.10;;;;;;5046464;27;89990;-57
2022/12/10 01:23:10;;;;;;;88.47;60.35;;;12.50;61.10;;;;;;5038173;27;91870;-57
2022/12/10 01:25:35;;;;;;;86.30;60.53;;;12.50;61.30;;;;;;5036719;27;89986;-58
2022/12/10 01:28:01;;;;;;;88.93;61.15;;;12.50;61.10;;;;;;5041956;27;89831;-56
2022/12/10 01:30:27;;;;;;;87.30;61.13;;;12.50;61.10;;;;;;5044727;27;91099;-57
2022/12/10 01:32:52;;;;;;;87.22;60.03;;;12.50;61.00;;;;;;5032069;27;95262;-59
2022/12/10 01:35:18;;;;;;;85.80;60.53;;;12.50;61.10;;;;;;5034721;27;91231;-58
2022/12/10 01:37:44;;;;;;;86.78;59.58;;;12.50;61.10;;;;;;5042914;27;91233;-58
2022/12/10 01:40:10;;;;;;;87.22;60.45;;;12.50;61.10;;;;;;5045655;27;89906;-58
2022/12/10 01:42:35;;;;;;;86.72;59.65;;;12.50;61.00;;;;;;5038000;27;91768;-58
2022/12/10 01:45:06;;;;;;;86.13;60.33;;;12.50;61.20;;;;;;5036094;27;91114;-58
2022/12/10 01:47:32;;;;;;;86.22;60.85;;;12.50;61.10;;;;;;5032653;27;91085;-57
2022/12/10 01:49:58;;;;;;;86.57;59.97;;;12.50;61.00;;;;;;5039263;27;92877;-59
2022/12/10 01:52:24;;;;;;;86.13;60.03;;;12.50;61.20;;;;;;5043934;27;89928;-59
2022/12/10 01:54:50;;;;;;;86.93;60.72;;;12.50;61.40;;;;;;5046436;27;90589;-59
2022/12/10 01:57:20;;;;;;;85.88;59.88;;;12.40;61.30;;;;;;5045118;27;89868;-55
2022/12/10 01:59:49;;;;;;;84.47;59.22;;;12.50;61.20;;;;;;5030124;27;93471;-59
2022/12/10 02:02:27;;;;;;;86.70;59.78;;;12.50;61.20;;;;;;5041414;27;90058;-59
2022/12/10 02:04:52;;;;;;;89.85;59.95;;;12.50;61.20;;;;;;5033771;27;91520;-60
2022/12/10 02:07:26;;;;;;;87.43;60.13;;;12.40;61.10;;;;;;5040190;27;91256;-59
2022/12/10 02:10:03;;;;;;;86.53;60.30;;;12.50;61.30;;;;;;5042126;27;90302;-58
2022/12/10 02:12:47;;;;;;;87.88;60.22;;;12.50;61.20;;;;;;5041016;27;92729;-57
2022/12/10 02:15:23;;;;;;;88.55;59.78;;;12.50;61.20;;;;;;5046065;27;90313;-59
2022/12/10 02:17:57;;;;;;;86.30;60.65;;;12.40;61.20;;;;;;5043319;27;89956;-58
2022/12/10 02:20:34;;;;;;;85.55;59.35;;;12.50;61.20;;;;;;5038382;27;90049;-58
2022/12/10 02:23:04;;;;;;;84.70;59.42;;;12.40;61.30;;;;;;5038574;27;90165;-59
2022/12/10 02:25:46;;;;;;;83.85;59.83;;;12.40;61.20;;;;;;5043861;27;91274;-59
2022/12/10 02:28:18;;;;;;;85.32;58.75;;;12.40;61.30;;;;;;5043842;27;92157;-58
2022/12/10 02:30:45;;;;;;;84.32;59.33;;;12.40;61.30;;;;;;5040605;27;90320;-59
2022/12/10 02:33:13;;;;;;;87.53;60.53;;;12.40;61.30;;;;;;5035021;27;91016;-58
2022/12/10 02:35:40;;;;;;;83.32;57.90;;;12.40;61.20;;;;;;5048923;27;90672;-58
2022/12/10 02:38:17;;;;;;;87.13;59.97;;;12.40;61.50;;;;;;5043884;27;90166;-59
2022/12/10 02:40:48;;;;;;;86.68;59.55;;;12.40;61.40;;;;;;5042187;27;92325;-59
2022/12/10 02:43:14;;;;;;;85.87;59.83;;;12.30;61.40;;;;;;5032640;27;89370;-57
2022/12/10 02:45:42;;;;;;;86.85;59.90;;;12.30;61.50;;;;;;5035804;27;91660;-59
2022/12/10 02:48:08;;;;;;;82.68;58.67;;;12.40;61.40;;;;;;5034754;27;90628;-58
2022/12/10 02:50:34;;;;;;;86.22;59.83;;;12.30;61.20;;;;;;5050361;27;91223;-58
2022/12/10 02:53:00;;;;;;;84.43;59.40;;;12.30;61.20;;;;;;5043372;27;92417;-57
2022/12/10 02:55:26;;;;;;;84.30;59.13;;;12.30;61.30;;;;;;5034867;27;91251;-56
2022/12/10 02:58:12;;;;;;;84.32;59.03;;;12.30;61.40;;;;;;5041429;27;92930;-57
2022/12/10 03:00:51;;;;;;;84.50;59.22;;;12.30;61.40;;;;;;5043036;27;90785;-58
2022/12/10 03:03:33;;;;;;;83.30;58.80;;;12.40;61.40;;;;;;5031561;27;91257;-59
2022/12/10 03:06:26;;;;;;;84.00;57.85;;;12.40;61.30;;;;;;5034691;27;90433;-57
2022/12/10 03:09:08;;;;;;;84.95;58.25;;;12.40;61.50;;;;;;5044821;27;91022;-57
2022/12/10 03:11:34;;;;;;;;;;;12.40;61.20;;;;;;5045200;27;90792;-58
2022/12/10 03:14:13;;;;;;;82.20;57.92;;;12.30;61.30;;;;;;5047937;27;89906;-58
2022/12/10 03:16:43;;;;;;;78.47;57.33;;;12.30;61.40;;;;;;5039370;27;92366;-58
2022/12/10 03:19:21;;;;;;;84.10;59.15;;;12.30;61.40;;;;;;5046245;27;96135;-58
2022/12/10 03:21:49;;;;;;;83.35;57.88;;;12.30;61.40;;;;;;5040581;27;90394;-57
2022/12/10 03:24:16;;;;;;;84.47;58.60;;;12.30;61.60;;;;;;5041287;27;90107;-59
2022/12/10 03:26:45;;;;;;;82.07;57.05;;;12.30;61.50;;;;;;5035171;27;91029;-58
2022/12/10 03:29:17;;;;;;;84.72;58.65;;;12.30;61.50;;;;;;5040212;27;90251;-57
2022/12/10 03:31:44;;;;;;;79.03;58.00;;;12.30;61.40;;;;;;5042470;27;90931;-57
2022/12/10 03:34:11;;;;;;;79.80;58.03;;;12.30;61.40;;;;;;5035465;27;89703;-58
2022/12/10 03:36:38;;;;;;;80.25;57.88;;;12.30;61.40;;;;;;5045370;27;92097;-58
2022/12/10 03:39:05;;;;;;;81.05;57.75;;;12.30;61.30;;;;;;5036491;27;90227;-58
2022/12/10 03:41:31;;;;;;;78.95;57.10;;;12.30;61.50;;;;;;5044012;27;90609;-59
2022/12/10 03:43:59;;;;;;;81.30;56.72;;;12.30;61.50;;;;;;5031009;27;90525;-58
2022/12/10 03:46:27;;;;;;;82.50;56.97;;;12.30;61.40;;;;;;5048508;27;96894;-59
2022/12/10 03:48:53;;;;;;;80.97;57.38;;;12.30;61.20;;;;;;5037339;27;90440;-57
2022/12/10 03:51:19;;;;;;;81.57;57.17;;;12.30;61.30;;;;;;5041967;27;90295;-57
2022/12/10 03:53:44;;;;;;;79.28;57.28;;;12.30;61.40;;;;;;5033313;27;89959;-58
2022/12/10 03:56:10;;;;;;;79.60;57.65;;;12.20;61.40;;;;;;5040804;27;90731;-58
2022/12/10 03:58:36;;;;;;;78.95;57.10;;;12.20;61.40;;;;;;5036607;27;90356;-58
2022/12/10 04:01:03;;;;;;;80.47;56.67;;;12.30;61.50;;;;;;5045971;27;90212;-58
2022/12/10 04:03:29;;;;;;;79.80;56.83;;;12.30;61.30;;;;;;5035513;27;89887;-58
2022/12/10 04:06:01;;;;;;;82.38;58.03;;;12.20;62.30;;;;;;5035205;27;91300;-59
2022/12/10 04:08:27;;;;;;;81.13;57.00;;;12.30;61.50;;;;;;5051316;27;91135;-59
2022/12/10 04:10:52;;;;;;;79.82;57.13;;;12.30;61.40;;;;;;5041447;27;90835;-59
2022/12/10 04:18:46;;;;;;;78.80;56.53;;;12.20;61.50;;;;;;5027833;27;91262;-58
2022/12/10 04:26:52;;;;;;;77.50;56.15;;;12.20;61.40;;;;;;5041231;27;93669;-58
2022/12/10 04:29:20;;;;;;;78.53;56.63;;;12.20;61.50;;;;;;5042564;27;90407;-59
2022/12/10 04:31:45;;;;;;;78.20;56.28;;;12.20;61.50;;;;;;5038189;27;90841;-59
2022/12/10 04:34:11;;;;;;;79.03;56.53;;;12.20;61.50;;;;;;5035412;27;89950;-57
2022/12/10 04:36:36;;;;;;;77.55;55.95;;;12.20;61.30;;;;;;5046312;27;91257;-59
2022/12/10 04:39:03;;;;;;;81.05;57.10;;;12.20;61.40;;;;;;5042696;27;90889;-57
2022/12/10 04:41:28;;;;;;;78.82;56.22;;;12.20;61.50;;;;;;5021199;27;91339;-58
2022/12/10 04:43:54;;;;;;;76.38;55.83;;;12.20;61.50;;;;;;5016946;27;94552;-59
2022/12/10 04:46:20;;;;;;;77.95;56.88;;;12.20;61.50;;;;;;4989435;27;90140;-59
2022/12/10 04:48:46;;;;;;;77.88;56.05;;;12.20;61.50;;;;;;5019386;27;90741;-58
2022/12/10 04:51:11;;;;;;;80.45;57.05;;;12.20;61.60;;;;;;5011590;27;90180;-58
2022/12/10 04:53:37;;;;;;;80.13;57.00;;;12.20;61.50;;;;;;5018145;27;92133;-58
2022/12/10 04:56:04;;;;;;;78.63;56.17;;;12.20;61.60;;;;;;5011327;27;92531;-58
2022/12/10 04:58:31;;;;;;;77.95;55.25;;;12.20;61.40;;;;;;5021969;27;98352;-58
2022/12/10 05:01:05;;;;;;;75.78;55.05;;;12.20;61.40;;;;;;5012875;27;91274;-58
2022/12/10 05:03:31;;;;;;;77.13;55.75;;;12.20;61.40;;;;;;5023865;27;90123;-59
2022/12/10 05:06:08;;;;;;;78.55;56.00;;;12.20;61.50;;;;;;5020461;27;90997;-58
2022/12/10 05:08:35;;;;;;;80.40;56.03;;;12.10;61.60;;;;;;5023494;27;89942;-59
2022/12/10 05:11:03;;;;;;;77.97;56.58;;;12.10;61.60;;;;;;5015560;27;90308;-59
2022/12/10 05:13:28;;;;;;;80.25;56.72;;;12.10;61.70;;;;;;5003620;27;90322;-58
2022/12/10 05:15:54;;;;;;;77.07;56.20;;;12.10;61.60;;;;;;5018652;27;91153;-59
2022/12/10 05:18:20;;;;;;;79.80;55.63;;;12.10;61.60;;;;;;5019845;27;91569;-58
2022/12/10 05:20:45;;;;;;;80.82;56.72;;;12.10;61.60;;;;;;5015249;27;94026;-58
2022/12/10 05:23:29;;;;;;;76.57;55.38;;;12.10;61.60;;;;;;5014478;27;93257;-58
2022/12/10 05:26:12;;;;;;;76.50;55.60;;;12.10;61.60;;;;;;5027523;27;90726;-59
2022/12/10 05:28:40;;;;;;;78.18;55.90;;;12.10;61.60;;;;;;5010822;27;91699;-60
2022/12/10 05:31:12;;;;;;;76.82;56.20;;;12.10;61.60;;;;;;5026497;27;89718;-58
2022/12/10 05:33:38;;;;;;;76.38;55.60;;;12.10;61.60;;;;;;5021408;27;89873;-58
2022/12/10 05:36:04;;;;;;;78.32;55.67;;;12.10;61.60;;;;;;5010972;27;96336;-57
2022/12/10 05:38:32;;;;;;;76.03;55.70;;;12.10;61.70;;;;;;5027230;27;89285;-58
2022/12/10 05:41:05;;;;;;;77.05;56.17;;;12.10;61.60;;;;;;5020185;27;90290;-58
2022/12/10 05:43:31;;;;;;;76.57;55.55;;;12.10;61.50;;;;;;5007670;27;93821;-58
2022/12/10 05:46:05;;;;;;;80.32;55.88;;;12.10;61.70;;;;;;5016405;27;91112;-58
2022/12/10 05:48:31;;;;;;;76.90;55.22;;;12.10;61.60;;;;;;5013674;27;95078;-57
2022/12/10 05:50:57;;;;;;;75.53;55.17;;;12.10;61.70;;;;;;5024101;27;89906;-58
2022/12/10 05:53:23;;;;;;;74.72;54.75;;;12.10;61.80;;;;;;5017517;27;93953;-57
2022/12/10 05:55:49;;;;;;;78.53;55.00;;;12.10;61.80;;;;;;5022522;27;90645;-58
2022/12/10 05:58:15;;;;;;;77.25;55.40;;;12.10;61.70;;;;;;5029525;27;91835;-58
2022/12/10 06:00:41;;;;;;;75.38;54.20;;;12.10;61.70;;;;;;5035953;27;92002;-58
2022/12/10 06:03:08;;;;;;;77.80;55.88;;;12.10;62.10;;;;;;5009106;27;89163;-58
2022/12/10 06:05:40;;;;;;;79.30;56.05;;;12.10;61.80;;;;;;5015191;27;90018;-57
2022/12/10 06:08:06;;;;;;;76.35;56.20;;;12.00;61.80;;;;;;5017838;27;89944;-59
2022/12/10 06:10:34;;;;;;;78.93;56.30;;;12.10;61.90;;;;;;5026459;27;96951;-59
2022/12/10 06:13:00;;;;;;;79.93;56.63;;;12.10;61.60;;;;;;5015614;27;91769;-58
2022/12/10 06:15:26;;;;;;;78.72;55.67;;;12.00;61.60;;;;;;5011028;27;90610;-58
2022/12/10 06:17:51;;;;;;;78.10;55.88;;;12.00;61.60;;;;;;5022205;27;91089;-56
2022/12/10 06:20:17;;;;;;;76.32;54.92;;;12.00;61.70;;;;;;5026913;27;90470;-58
2022/12/10 06:22:42;;;;;;;76.45;55.35;;;12.00;61.40;;;;;;5017613;27;90091;-58
2022/12/10 06:25:08;;;;;;;77.13;56.80;;;12.00;61.30;;;;;;5016183;27;91420;-58
2022/12/10 06:27:34;;;;;;;77.63;55.03;;;11.90;61.70;;;;;;5027399;27;90469;-58
2022/12/10 06:29:59;;;;;;;78.28;55.38;;;11.90;61.70;;;;;;5012745;27;96307;-59
2022/12/10 06:32:25;;;;;;;76.47;54.70;;;11.90;61.60;;;;;;5021568;27;94919;-58
2022/12/10 06:34:51;;;;;;;77.97;55.45;;;11.90;61.60;;;;;;5026831;27;91225;-57
2022/12/10 06:37:16;;;;;;;77.43;54.50;;;11.80;61.60;;;;;;5026770;27;90819;-58
2022/12/10 06:39:42;;;;;;;79.15;55.85;;;11.80;62.50;;;;;;5012443;27;95556;-58
2022/12/10 06:42:08;;;;;;;79.65;55.35;;;11.90;62.50;;;;;;5043752;27;90200;-54
2022/12/10 06:44:34;;;;;;;78.15;55.70;;;11.90;62.20;;;;;;5023452;27;91455;-56
2022/12/10 06:46:59;;;;;;;77.05;56.10;;;12.00;62.30;;;;;;5025148;27;90546;-58
2022/12/10 06:49:25;;;;;;;82.75;58.90;;;12.00;62.20;;;;;;5036975;27;90961;-59
2022/12/10 06:51:51;;;;;;;98.28;67.13;;;12.00;62.10;;;;;;5039032;27;89936;-58
2022/12/10 06:54:16;;;;;;;96.03;64.13;;;12.00;62.00;;;;;;5048407;27;89928;-58
2022/12/10 06:56:42;;;;;;;87.68;62.47;;;12.00;62.10;;;;;;5047665;27;90479;-58
2022/12/10 06:59:08;;;;;;;92.63;63.05;;;12.00;62.10;;;;;;5045824;27;91098;-58
2022/12/10 07:01:33;;;;;;;90.50;61.63;;;12.10;62.00;;;;;;5038321;27;95372;-58
2022/12/10 07:03:59;;;;;;;86.30;60.47;;;12.20;62.00;;;;;;5023635;27;90433;-58
2022/12/10 07:06:26;;;;;;;86.50;60.10;;;12.30;61.70;;;;;;5040703;27;90728;-58
2022/12/10 07:08:52;;;;;;;85.88;59.22;;;12.30;61.30;;;;;;5044782;27;92676;-57
2022/12/10 07:11:20;;;;;;;88.60;59.90;;;12.40;61.30;;;;;;5042803;27;90807;-57
2022/12/10 07:13:47;;;;;;;88.80;60.10;;;12.50;61.10;;;;;;5039724;27;93343;-58
2022/12/10 07:16:22;;;;;;;87.25;59.40;;;12.50;60.80;;;;;;5038876;27;89645;-58
2022/12/10 07:18:48;;;;;;;84.13;58.53;;;12.60;60.80;;;;;;5043377;27;93586;-58
2022/12/10 07:21:16;;;;;;;86.13;58.60;;;12.70;60.70;;;;;;5040735;27;90164;-57
2022/12/10 07:23:42;;;;;;;84.13;58.30;;;12.60;60.60;;;;;;5029108;27;92531;-58
2022/12/10 07:26:07;;;;;;;82.15;58.03;;;12.70;60.60;;;;;;5024061;27;90839;-56
2022/12/10 07:28:33;;;;;;;84.07;58.50;;;12.70;60.50;;;;;;5034612;27;90210;-58
2022/12/10 07:31:04;;;;;;;84.32;58.38;;;12.70;60.40;;;;;;5051991;27;90960;-56
2022/12/10 07:33:29;;;;;;;84.35;57.30;;;12.80;60.50;;;;;;5047506;27;90952;-58
2022/12/10 07:35:56;;;;;;;85.85;59.00;;;12.80;60.20;;;;;;5015475;27;90047;-57
2022/12/10 07:38:25;;;;;;;83.05;58.05;;;12.80;60.10;;;;;;5036541;27;90288;-59
2022/12/10 07:40:51;;;;;;;87.13;58.95;;;12.80;60.20;;;;;;5042033;27;92001;-58
2022/12/10 07:43:17;;;;;;;87.03;59.20;;;12.70;60.20;;;;;;5004961;27;92648;-59
2022/12/10 07:45:43;;;;;;;81.72;58.05;;;12.70;60.50;;;;;;5034990;27;89871;-59
2022/12/10 07:48:09;;;;;;;86.05;57.88;;;12.80;60.40;;;;;;5032914;27;91044;-57
2022/12/10 07:50:35;;;;;;;82.32;57.63;;;12.90;60.10;;;;;;5044687;27;91400;-59
2022/12/10 07:53:00;;;;;;;84.55;57.67;;;13.10;60.00;;;;;;5043970;27;90944;-57
2022/12/10 07:55:26;;;;;;;83.20;57.47;;;13.10;59.70;;;;;;5046768;27;90291;-59
2022/12/10 07:57:52;;;;;;;85.25;57.47;;;13.20;59.70;;;;;;5035553;27;94509;-58
2022/12/10 08:00:18;;;;;;;83.22;57.22;;;13.20;59.50;;;;;;5046485;27;90020;-58
2022/12/10 08:02:43;;;;;;;84.53;57.63;;;13.30;59.30;;;;;;5038228;27;90100;-58
2022/12/10 08:05:09;;;;;;;83.28;57.70;;;13.40;59.40;;;;;;5027664;27;90567;-58
2022/12/10 08:07:35;;;;;;;89.20;58.65;;;13.40;59.20;;;;;;5041673;27;90532;-58
2022/12/10 08:10:00;;;;;;;86.57;58.95;;;13.40;59.30;;;;;;5039048;27;90778;-58
2022/12/10 08:12:26;;;;;;;85.28;57.25;;;13.40;59.20;;;;;;5053934;27;93224;-58
2022/12/10 08:14:52;;;;;;;86.07;58.40;;;13.40;59.10;;;;;;5039825;27;93374;-58
2022/12/10 08:17:17;;;;;;;84.85;57.72;;;13.50;59.00;;;;;;5035862;27;94545;-57
2022/12/10 08:19:43;;;;;;;89.68;57.67;;;13.60;58.90;;;;;;5039662;27;91251;-57
2022/12/10 08:22:09;;;;;;;85.68;57.75;;;13.70;58.70;;;;;;5015902;27;91498;-57
2022/12/10 08:24:34;;;;;;;84.55;57.15;;;13.70;58.70;;;;;;5047677;27;89861;-58
2022/12/10 08:27:01;;;;;;;84.50;58.05;;;13.80;58.50;;;;;;5046908;27;90377;-57
2022/12/10 08:29:27;;;;;;;85.82;57.50;;;13.80;58.40;;;;;;5046905;27;90736;-56
2022/12/10 08:31:52;;;;;;;88.57;57.47;;;13.90;58.20;;;;;;5039424;27;93631;-59
2022/12/10 08:34:18;;;;;;;81.93;56.97;;;13.90;58.20;;;;;;5043549;27;90357;-59
2022/12/10 08:36:45;;;;;;;86.22;57.65;;;14.00;58.10;;;;;;5035694;27;96370;-58
2022/12/10 08:39:14;;;;;;;83.22;57.33;;;14.00;58.00;;;;;;5041924;27;92694;-58
2022/12/10 08:41:41;;;;;;;85.05;57.15;;;14.10;57.90;;;;;;5036639;27;91170;-58
2022/12/10 08:44:07;;;;;;;88.28;57.20;;;14.10;57.80;;;;;;5040872;27;90566;-58
2022/12/10 08:46:32;;;;;;;86.43;57.22;;;14.20;57.70;;;;;;5036996;27;90570;-57
2022/12/10 08:48:58;;;;;;;86.40;58.30;;;14.20;57.70;;;;;;5042040;27;90116;-58
2022/12/10 08:51:24;;;;;;;85.93;57.78;;;14.20;57.50;;;;;;5047608;27;89717;-58
2022/12/10 08:53:50;;;;;;;82.45;56.55;;;14.30;57.50;;;;;;5041279;27;90572;-59
2022/12/10 08:56:15;;;;;;;84.88;57.10;;;14.30;57.50;;;;;;5040193;27;91061;-58
2022/12/10 08:58:41;;;;;;;83.90;57.30;;;14.40;57.40;;;;;;5036484;27;90983;-59
2022/12/10 09:01:09;;;;;;;85.53;57.55;;;14.30;57.50;;;;;;5041176;27;91469;-58
2022/12/10 09:03:35;;;;;;;87.53;57.70;;;14.30;57.60;;;;;;5045438;27;91830;-57
2022/12/10 09:06:06;;;;;;;88.35;57.55;;;14.30;57.80;;;;;;5047047;27;90015;-58
2022/12/10 09:08:32;;;;;;;89.70;56.63;;;14.30;57.70;;;;;;5033620;27;90068;-58
2022/12/10 09:10:58;;;;;;;90.30;57.53;;;14.30;57.80;;;;;;5038156;27;90414;-58
2022/12/10 09:13:23;;;;;;;88.00;57.72;;;14.40;57.60;;;;;;5041119;27;91317;-58
2022/12/10 09:15:51;;;;;;;86.15;57.67;;;14.40;57.80;;;;;;5030150;27;91357;-59
2022/12/10 09:18:17;;;;;;;91.30;57.70;;;14.50;57.60;;;;;;5040263;27;89532;-57
2022/12/10 09:20:42;;;;;;;89.80;58.05;;;14.50;57.60;;;;;;5042345;27;90638;-58
2022/12/10 09:23:08;;;;;;;91.07;57.60;;;14.60;57.60;;;;;;5047361;27;90436;-58
2022/12/10 09:25:34;;;;;;;90.05;58.92;;;14.60;57.70;;;;;;5051091;27;91824;-59
2022/12/10 09:27:59;;;;;;;82.70;56.67;;;14.60;57.80;;;;;;5018870;27;92839;-58
2022/12/10 09:30:25;;;;;;;89.25;58.40;;;14.60;58.00;;;;;;5040070;27;95430;-58
2022/12/10 09:32:50;;;;;;;85.97;56.95;;;14.60;58.00;;;;;;5036751;27;91138;-59
2022/12/10 09:35:16;;;;;;;90.28;57.47;;;14.60;58.10;;;;;;5044078;27;91755;-57
2022/12/10 09:37:42;;;;;;;86.93;57.60;;;14.70;58.00;;;;;;5033253;27;90321;-58
2022/12/10 09:40:17;;;;;;;83.32;57.10;;;14.70;58.10;;;;;;5042017;27;90942;-58
2022/12/10 09:42:48;;;;;;;89.13;58.08;;;14.70;58.30;;;;;;5011584;27;90844;-58
2022/12/10 09:45:31;;;;;;;88.03;57.65;;;14.70;58.40;;;;;;5014076;27;93667;-58
2022/12/10 09:48:20;;;;;;;93.53;57.97;;;14.70;58.40;;;;;;5029200;27;90387;-55
2022/12/10 09:50:53;;;;;;;90.60;58.05;;;15.00;58.10;;;;;;5003094;27;91118;-64
2022/12/10 09:53:22;;;;;;;87.32;58.28;;;15.10;58.60;;;;;;5015006;27;93243;-56
2022/12/10 09:55:49;;;;;;;86.72;58.65;;;15.30;58.00;;;;;;5019383;27;92187;-61
2022/12/10 09:58:21;;;;;;;89.65;59.10;;;15.40;58.30;;;;;;5027925;27;90336;-63
2022/12/10 10:00:54;;;;;;;89.85;59.28;;;15.40;59.00;;;;;;5016480;27;90983;-62
2022/12/10 10:03:19;;;;;;;92.20;58.95;;;15.70;58.20;;;;;;5023270;27;91583;-52
2022/12/10 10:05:53;;;;;;;87.47;58.50;;;15.70;57.90;;;;;;5016088;27;92083;-59
2022/12/10 10:08:31;;;;;;;87.07;58.58;;;15.90;57.90;;;;;;5015777;27;89623;-53
2022/12/10 10:10:57;;;;;;;87.00;58.35;;;16.10;57.00;;;;;;5024648;27;95160;-61
2022/12/10 10:13:52;;;;;;;85.55;57.95;;;16.10;57.00;;;;;;5012816;27;91163;-55
2022/12/10 10:16:45;;;;;;;88.53;57.78;;;16.20;56.70;;;;;;5023904;27;90684;-52
2022/12/10 10:19:17;;;;;;;91.65;57.92;;;16.10;55.90;;;;;;5026052;27;91848;-55
2022/12/10 10:21:46;;;;;;;87.45;58.10;;;16.00;56.20;;;;;;5023501;27;90463;-55
2022/12/10 10:24:16;;;;;;;85.38;56.95;;;16.00;56.80;;;;;;5027085;27;89992;-55
2022/12/10 10:26:42;;;;;;;92.05;57.70;;;16.00;56.10;;;;;;5017330;27;90971;-55
2022/12/10 10:29:11;;;;;;;85.85;57.33;;;16.10;56.20;;;;;;5017823;27;90268;-53
2022/12/10 10:31:40;;;;;;;85.43;57.17;;;16.10;56.20;;;;;;5022080;27;90502;-59
2022/12/10 10:34:21;;;;;;;85.55;56.63;;;16.10;56.30;;;;;;5023774;27;89782;-59
2022/12/10 10:36:47;;;;;;;84.45;55.95;;;16.10;56.20;;;;;;5021736;27;90434;-56
2022/12/10 10:39:16;;;;;;;85.55;56.67;;;16.10;56.10;;;;;;5015648;27;90052;-60
2022/12/10 10:41:42;;;;;;;87.82;57.20;;;16.10;56.70;;;;;;5048830;27;91996;-60
2022/12/10 10:44:20;;;;;;;87.10;57.67;;;16.00;56.40;;;;;;5041510;27;91083;-61
2022/12/10 10:46:49;;;;;;;87.07;57.28;;;15.90;56.50;;;;;;5032516;27;90251;-60
2022/12/10 10:49:21;;;;;;;82.78;57.20;;;15.80;56.70;;;;;;5041399;27;89941;-61
2022/12/10 10:51:47;;;;;;;84.00;56.75;;;15.70;57.10;;;;;;5029918;27;91983;-60
2022/12/10 10:54:30;;;;;;;88.80;56.72;;;15.70;56.80;;;;;;5050694;27;90176;-60
2022/12/10 10:56:56;;;;;;;81.93;56.80;;;15.70;56.80;;;;;;5047002;27;91117;-60
2022/12/10 10:59:32;;;;;;;84.28;57.22;;;15.70;56.60;;;;;;5037560;27;89901;-59
2022/12/10 11:02:25;;;;;;;80.28;56.08;;;15.70;56.80;;;;;;5027266;27;90691;-61
2022/12/10 11:04:53;;;;;;;81.28;56.20;;;15.70;56.70;;;;;;5044787;27;91054;-60
2022/12/10 11:07:33;;;;;;;81.78;55.58;;;15.70;56.50;;;;;;5032846;27;90871;-61
2022/12/10 11:10:00;;;;;;;82.13;55.80;;;15.70;56.50;;;;;;5029426;27;91018;-60
2022/12/10 11:12:38;;;;;;;83.30;56.10;;;15.80;56.50;;;;;;5044517;27;91057;-60
2022/12/10 11:15:22;;;;;;;84.68;56.05;;;15.80;56.50;;;;;;5039727;27;90833;-61
2022/12/10 11:17:49;;;;;;;80.30;55.67;;;15.80;56.60;;;;;;5045378;27;91716;-62
2022/12/10 11:20:23;;;;;;;79.28;55.63;;;15.80;56.40;;;;;;5035773;27;90586;-60
2022/12/10 11:22:55;;;;;;;82.57;55.35;;;15.70;56.50;;;;;;5036222;27;90005;-61
2022/12/10 11:25:42;;;;;;;79.90;55.92;;;15.70;56.50;;;;;;5032840;27;90024;-61
2022/12/10 11:28:29;;;;;;;82.40;56.08;;;15.70;56.50;;;;;;5038925;27;90386;-58
2022/12/10 11:31:28;;;;;;;80.35;55.08;;;15.70;56.70;;;;;;5042603;27;90068;-60
2022/12/10 11:34:09;;;;;;;83.55;55.85;;;15.60;57.10;;;;;;5009664;27;94764;-61
2022/12/10 11:37:19;;;;;;;82.03;55.22;;;15.50;57.10;;;;;;5034749;27;92303;-60
2022/12/10 11:40:15;;;;;;;82.22;55.60;;;15.50;57.00;;;;;;5046295;27;90175;-60
2022/12/10 11:43:00;;;;;;;81.40;55.97;;;15.50;57.00;;;;;;5035185;27;90833;-60
2022/12/10 11:45:34;;;;;;;79.90;55.38;;;15.50;57.00;;;;;;5035324;27;92081;-59
2022/12/10 11:48:29;;;;;;;80.93;55.45;;;15.50;56.90;;;;;;5022694;27;95069;-59
2022/12/10 11:51:05;;;;;;;80.93;56.63;;;15.50;57.00;;;;;;5030966;27;90781;-59
2022/12/10 11:54:12;;;;;;;82.80;56.08;;;15.50;57.00;;;;;;5033001;27;89269;-61
2022/12/10 11:56:43;;;;;;;80.50;54.90;;;15.50;56.70;;;;;;5028647;27;90522;-59
2022/12/10 11:59:21;;;;;;;77.15;54.92;;;15.50;57.10;;;;;;5038362;27;91285;-59
2022/12/10 12:01:58;;;;;;;81.50;55.95;;;15.40;57.00;;;;;;5035517;27;91046;-59
2022/12/10 12:04:39;;;;;;;80.10;55.00;;;15.50;57.10;;;;;;5045785;27;92221;-60
2022/12/10 12:07:29;;;;;;;79.53;54.40;;;15.50;57.10;;;;;;5047364;27;90105;-57
2022/12/10 12:10:03;;;;;;;80.65;55.45;;;15.50;57.30;;;;;;5043118;27;91013;-61
2022/12/10 12:12:41;;;;;;;84.38;55.22;;;15.40;57.70;;;;;;5037514;27;89924;-60
2022/12/10 12:15:42;;;;;;;81.75;55.85;;;15.40;58.80;;;;;;5012560;27;91679;-60
2022/12/10 12:18:27;;;;;;;79.50;55.83;;;15.40;59.20;;;;;;5038678;27;94414;-59
2022/12/10 12:21:01;;;;;;;82.70;55.72;;;15.40;59.60;;;;;;5035240;27;89878;-58
2022/12/10 12:23:35;;;;;;;82.03;55.45;;;15.40;60.90;;;;;;5036512;27;90118;-60
2022/12/10 12:26:11;;;;;;;80.05;55.17;;;15.40;60.90;;;;;;5032083;27;92100;-61
2022/12/10 12:28:46;;;;;;;79.47;55.20;;;15.50;61.00;;;;;;5041398;27;91339;-61
2022/12/10 12:31:27;;;;;;;80.35;55.40;;;15.40;60.90;;;;;;5039468;27;92101;-58
2022/12/10 12:34:01;;;;;;;77.90;55.10;;;15.40;61.20;;;;;;5042405;27;91330;-61
2022/12/10 12:36:32;;;;;;;79.15;54.95;;;15.40;61.40;;;;;;5042942;27;91077;-61
2022/12/10 12:39:01;;;;;;;79.60;55.67;;;15.40;61.50;;;;;;5027616;27;92734;-61
2022/12/10 12:41:30;;;;;;;80.93;54.80;;;15.40;61.70;;;;;;5031540;27;93993;-60
2022/12/10 12:44:09;;;;;;;79.38;55.42;;;15.50;61.70;;;;;;5040430;27;90530;-59
2022/12/10 12:46:44;;;;;;;79.03;55.70;;;15.50;62.10;;;;;;5036739;27;91076;-60
2022/12/10 12:49:30;;;;;;;80.20;55.97;;;15.40;61.70;;;;;;5030198;27;97970;-61
2022/12/10 12:52:22;;;;;;;83.03;55.60;;;15.40;62.00;;;;;;5037600;27;90026;-60
2022/12/10 12:54:49;;;;;;;79.60;56.00;;;15.50;62.70;;;;;;5019933;27;90977;-60